sensor_id;sensor_type;location;lat;lon;timestamp;P1;durP1;ratioP1;P2;durP2;ratioP2
16642;SDS011;8435;52.184;5.406;2023-11-19T00:00:24;7.40;;;4.20;;
16642;SDS011;8435;52.184;5.406;2023-11-19T00:02:51;8.33;;;4.10;;
16642;SDS011;8435;52.184;5.406;2023-11-19T00:05:24;9.03;;;3.70;;
16642;SDS011;8435;52.184;5.406;2023-11-19T00:07:54;7.23;;;3.60;;
16642;SDS011;8435;52.184;5.406;2023-11-19T00:10:20;10.77;;;3.47;;
16642;SDS011;8435;52.184;5.406;2023-11-19T00:12:48;8.50;;;3.97;;
16642;SDS011;8435;52.184;5.406;2023-11-19T00:15:18;8.83;;;3.20;;
16642;SDS011;8435;52.184;5.406;2023-11-19T00:17:45;8.63;;;3.30;;
16642;SDS011;8435;52.184;5.406;2023-11-19T00:20:13;12.63;;;3.97;;
16642;SDS011;8435;52.184;5.406;2023-11-19T00:22:41;14.90;;;3.80;;
16642;SDS011;8435;52.184;5.406;2023-11-19T00:25:12;8.77;;;3.40;;
16642;SDS011;8435;52.184;5.406;2023-11-19T00:27:39;7.43;;;3.03;;
16642;SDS011;8435;52.184;5.406;2023-11-19T00:30:09;7.27;;;2.93;;
16642;SDS011;8435;52.184;5.406;2023-11-19T00:32:37;10.13;;;3.63;;
16642;SDS011;8435;52.184;5.406;2023-11-19T00:35:04;10.17;;;3.33;;
16642;SDS011;8435;52.184;5.406;2023-11-19T00:37:32;8.73;;;3.53;;
16642;SDS011;8435;52.184;5.406;2023-11-19T00:39:59;12.03;;;3.43;;
16642;SDS011;8435;52.184;5.406;2023-11-19T00:42:27;10.70;;;3.97;;
16642;SDS011;8435;52.184;5.406;2023-11-19T00:44:54;9.23;;;3.30;;
16642;SDS011;8435;52.184;5.406;2023-11-19T00:47:20;13.67;;;3.70;;
16642;SDS011;8435;52.184;5.406;2023-11-19T00:49:47;10.70;;;3.40;;
16642;SDS011;8435;52.184;5.406;2023-11-19T00:52:15;8.07;;;3.07;;
16642;SDS011;8435;52.184;5.406;2023-11-19T00:54:41;7.80;;;3.20;;
16642;SDS011;8435;52.184;5.406;2023-11-19T00:57:08;9.80;;;3.70;;
16642;SDS011;8435;52.184;5.406;2023-11-19T00:59:37;13.23;;;4.00;;
16642;SDS011;8435;52.184;5.406;2023-11-19T01:02:04;12.83;;;3.90;;
16642;SDS011;8435;52.184;5.406;2023-11-19T01:04:33;11.97;;;4.30;;
16642;SDS011;8435;52.184;5.406;2023-11-19T01:07:01;14.77;;;4.37;;
16642;SDS011;8435;52.184;5.406;2023-11-19T01:09:29;15.10;;;4.00;;
16642;SDS011;8435;52.184;5.406;2023-11-19T01:11:57;14.60;;;4.17;;
16642;SDS011;8435;52.184;5.406;2023-11-19T01:14:25;14.37;;;4.37;;
16642;SDS011;8435;52.184;5.406;2023-11-19T01:16:54;10.97;;;3.73;;
16642;SDS011;8435;52.184;5.406;2023-11-19T01:19:26;15.63;;;4.03;;
16642;SDS011;8435;52.184;5.406;2023-11-19T01:21:54;13.60;;;4.27;;
16642;SDS011;8435;52.184;5.406;2023-11-19T01:24:21;14.13;;;4.47;;
16642;SDS011;8435;52.184;5.406;2023-11-19T01:26:48;20.37;;;5.27;;
16642;SDS011;8435;52.184;5.406;2023-11-19T01:29:15;18.33;;;4.80;;
16642;SDS011;8435;52.184;5.406;2023-11-19T01:31:42;13.93;;;4.07;;
16642;SDS011;8435;52.184;5.406;2023-11-19T01:34:11;14.03;;;4.17;;
16642;SDS011;8435;52.184;5.406;2023-11-19T01:36:37;16.27;;;4.67;;
16642;SDS011;8435;52.184;5.406;2023-11-19T01:39:05;15.03;;;4.33;;
16642;SDS011;8435;52.184;5.406;2023-11-19T01:41:33;15.50;;;4.20;;
16642;SDS011;8435;52.184;5.406;2023-11-19T01:44:01;14.60;;;4.23;;
16642;SDS011;8435;52.184;5.406;2023-11-19T01:46:28;16.97;;;5.10;;
16642;SDS011;8435;52.184;5.406;2023-11-19T01:48:58;15.73;;;4.83;;
16642;SDS011;8435;52.184;5.406;2023-11-19T01:51:27;17.30;;;4.87;;
16642;SDS011;8435;52.184;5.406;2023-11-19T01:53:54;14.63;;;4.70;;
16642;SDS011;8435;52.184;5.406;2023-11-19T01:56:23;18.63;;;4.40;;
16642;SDS011;8435;52.184;5.406;2023-11-19T01:58:50;22.20;;;5.43;;
16642;SDS011;8435;52.184;5.406;2023-11-19T02:01:19;15.40;;;4.60;;
16642;SDS011;8435;52.184;5.406;2023-11-19T02:03:46;15.93;;;5.00;;
16642;SDS011;8435;52.184;5.406;2023-11-19T02:06:13;19.90;;;4.33;;
16642;SDS011;8435;52.184;5.406;2023-11-19T02:08:42;21.00;;;5.47;;
16642;SDS011;8435;52.184;5.406;2023-11-19T02:11:09;15.87;;;4.70;;
16642;SDS011;8435;52.184;5.406;2023-11-19T02:13:37;21.67;;;5.10;;
16642;SDS011;8435;52.184;5.406;2023-11-19T02:16:05;20.67;;;5.23;;
16642;SDS011;8435;52.184;5.406;2023-11-19T02:18:34;17.07;;;4.27;;
16642;SDS011;8435;52.184;5.406;2023-11-19T02:21:01;24.73;;;5.77;;
16642;SDS011;8435;52.184;5.406;2023-11-19T02:23:28;16.47;;;4.63;;
16642;SDS011;8435;52.184;5.406;2023-11-19T02:26:00;23.70;;;5.47;;
16642;SDS011;8435;52.184;5.406;2023-11-19T02:28:32;24.87;;;5.70;;
16642;SDS011;8435;52.184;5.406;2023-11-19T02:31:00;18.67;;;5.13;;
16642;SDS011;8435;52.184;5.406;2023-11-19T02:33:26;16.47;;;4.63;;
16642;SDS011;8435;52.184;5.406;2023-11-19T02:35:54;19.53;;;5.00;;
16642;SDS011;8435;52.184;5.406;2023-11-19T02:38:21;21.03;;;5.03;;
16642;SDS011;8435;52.184;5.406;2023-11-19T02:40:48;21.27;;;4.83;;
16642;SDS011;8435;52.184;5.406;2023-11-19T02:43:15;19.33;;;4.77;;
16642;SDS011;8435;52.184;5.406;2023-11-19T02:45:44;24.13;;;5.57;;
16642;SDS011;8435;52.184;5.406;2023-11-19T02:48:11;19.47;;;5.77;;
16642;SDS011;8435;52.184;5.406;2023-11-19T02:50:39;19.77;;;5.03;;
16642;SDS011;8435;52.184;5.406;2023-11-19T02:53:06;18.77;;;5.33;;
16642;SDS011;8435;52.184;5.406;2023-11-19T02:55:33;21.67;;;5.00;;
16642;SDS011;8435;52.184;5.406;2023-11-19T02:58:03;19.23;;;5.67;;
16642;SDS011;8435;52.184;5.406;2023-11-19T03:00:34;19.00;;;5.47;;
16642;SDS011;8435;52.184;5.406;2023-11-19T03:03:08;23.53;;;5.87;;
16642;SDS011;8435;52.184;5.406;2023-11-19T03:05:45;19.17;;;5.27;;
16642;SDS011;8435;52.184;5.406;2023-11-19T03:08:13;21.03;;;5.40;;
16642;SDS011;8435;52.184;5.406;2023-11-19T03:10:40;22.83;;;5.70;;
16642;SDS011;8435;52.184;5.406;2023-11-19T03:13:09;20.63;;;6.13;;
16642;SDS011;8435;52.184;5.406;2023-11-19T03:15:39;17.60;;;5.70;;
16642;SDS011;8435;52.184;5.406;2023-11-19T03:18:06;16.83;;;5.57;;
16642;SDS011;8435;52.184;5.406;2023-11-19T03:20:34;20.47;;;6.20;;
16642;SDS011;8435;52.184;5.406;2023-11-19T03:23:01;24.03;;;7.23;;
16642;SDS011;8435;52.184;5.406;2023-11-19T03:25:27;24.70;;;6.17;;
16642;SDS011;8435;52.184;5.406;2023-11-19T03:27:58;20.57;;;6.00;;
16642;SDS011;8435;52.184;5.406;2023-11-19T03:30:25;24.23;;;6.60;;
16642;SDS011;8435;52.184;5.406;2023-11-19T03:32:53;22.13;;;5.87;;
16642;SDS011;8435;52.184;5.406;2023-11-19T03:35:20;21.27;;;5.53;;
16642;SDS011;8435;52.184;5.406;2023-11-19T03:37:48;25.37;;;6.23;;
16642;SDS011;8435;52.184;5.406;2023-11-19T03:40:15;19.20;;;6.10;;
16642;SDS011;8435;52.184;5.406;2023-11-19T03:42:43;22.97;;;6.13;;
16642;SDS011;8435;52.184;5.406;2023-11-19T03:45:10;25.90;;;6.17;;
16642;SDS011;8435;52.184;5.406;2023-11-19T03:47:37;29.00;;;6.10;;
16642;SDS011;8435;52.184;5.406;2023-11-19T03:50:05;23.73;;;5.97;;
16642;SDS011;8435;52.184;5.406;2023-11-19T03:52:33;24.80;;;5.97;;
16642;SDS011;8435;52.184;5.406;2023-11-19T03:55:01;30.67;;;7.40;;
16642;SDS011;8435;52.184;5.406;2023-11-19T03:57:29;18.47;;;5.17;;
16642;SDS011;8435;52.184;5.406;2023-11-19T03:59:56;24.17;;;5.40;;
16642;SDS011;8435;52.184;5.406;2023-11-19T04:02:23;20.93;;;5.90;;
16642;SDS011;8435;52.184;5.406;2023-11-19T04:04:52;25.87;;;5.80;;
16642;SDS011;8435;52.184;5.406;2023-11-19T04:07:20;25.27;;;5.70;;
16642;SDS011;8435;52.184;5.406;2023-11-19T04:09:46;24.03;;;5.77;;
16642;SDS011;8435;52.184;5.406;2023-11-19T04:12:14;25.57;;;6.77;;
16642;SDS011;8435;52.184;5.406;2023-11-19T04:14:41;24.43;;;5.73;;
16642;SDS011;8435;52.184;5.406;2023-11-19T04:17:09;23.13;;;6.00;;
16642;SDS011;8435;52.184;5.406;2023-11-19T04:19:35;21.03;;;5.67;;
16642;SDS011;8435;52.184;5.406;2023-11-19T04:22:03;20.77;;;5.67;;
16642;SDS011;8435;52.184;5.406;2023-11-19T04:24:30;21.83;;;6.00;;
16642;SDS011;8435;52.184;5.406;2023-11-19T04:26:57;25.80;;;5.90;;
16642;SDS011;8435;52.184;5.406;2023-11-19T04:29:25;23.13;;;5.60;;
16642;SDS011;8435;52.184;5.406;2023-11-19T04:31:51;18.53;;;5.60;;
16642;SDS011;8435;52.184;5.406;2023-11-19T04:34:18;27.13;;;6.93;;
16642;SDS011;8435;52.184;5.406;2023-11-19T04:36:45;19.60;;;5.77;;
16642;SDS011;8435;52.184;5.406;2023-11-19T04:39:12;23.90;;;6.77;;
16642;SDS011;8435;52.184;5.406;2023-11-19T04:41:46;20.27;;;5.73;;
16642;SDS011;8435;52.184;5.406;2023-11-19T04:44:14;23.60;;;5.97;;
16642;SDS011;8435;52.184;5.406;2023-11-19T04:46:42;26.33;;;7.03;;
16642;SDS011;8435;52.184;5.406;2023-11-19T04:49:09;24.23;;;6.23;;
16642;SDS011;8435;52.184;5.406;2023-11-19T04:51:38;29.33;;;7.20;;
16642;SDS011;8435;52.184;5.406;2023-11-19T04:54:05;24.40;;;6.80;;
16642;SDS011;8435;52.184;5.406;2023-11-19T04:56:33;26.47;;;5.93;;
16642;SDS011;8435;52.184;5.406;2023-11-19T04:59:00;24.70;;;6.17;;
16642;SDS011;8435;52.184;5.406;2023-11-19T05:01:27;24.17;;;6.50;;
16642;SDS011;8435;52.184;5.406;2023-11-19T05:03:55;24.53;;;6.57;;
16642;SDS011;8435;52.184;5.406;2023-11-19T05:06:25;30.00;;;7.40;;
16642;SDS011;8435;52.184;5.406;2023-11-19T05:08:53;23.53;;;5.43;;
16642;SDS011;8435;52.184;5.406;2023-11-19T05:11:20;25.30;;;6.20;;
16642;SDS011;8435;52.184;5.406;2023-11-19T05:13:47;19.77;;;5.73;;
16642;SDS011;8435;52.184;5.406;2023-11-19T05:16:14;23.67;;;6.23;;
16642;SDS011;8435;52.184;5.406;2023-11-19T05:18:40;25.37;;;6.63;;
16642;SDS011;8435;52.184;5.406;2023-11-19T05:21:09;28.90;;;6.00;;
16642;SDS011;8435;52.184;5.406;2023-11-19T05:23:35;19.83;;;5.63;;
16642;SDS011;8435;52.184;5.406;2023-11-19T05:26:02;21.70;;;5.90;;
16642;SDS011;8435;52.184;5.406;2023-11-19T05:28:29;22.63;;;5.47;;
16642;SDS011;8435;52.184;5.406;2023-11-19T05:30:56;22.73;;;5.83;;
16642;SDS011;8435;52.184;5.406;2023-11-19T05:33:23;24.87;;;6.23;;
16642;SDS011;8435;52.184;5.406;2023-11-19T05:35:50;27.20;;;6.87;;
16642;SDS011;8435;52.184;5.406;2023-11-19T05:38:18;21.57;;;5.43;;
16642;SDS011;8435;52.184;5.406;2023-11-19T05:40:46;22.40;;;5.37;;
16642;SDS011;8435;52.184;5.406;2023-11-19T05:43:14;23.70;;;6.37;;
16642;SDS011;8435;52.184;5.406;2023-11-19T05:45:41;28.23;;;5.70;;
16642;SDS011;8435;52.184;5.406;2023-11-19T05:48:08;25.30;;;6.77;;
16642;SDS011;8435;52.184;5.406;2023-11-19T05:50:35;24.43;;;6.27;;
16642;SDS011;8435;52.184;5.406;2023-11-19T05:53:02;22.53;;;5.17;;
16642;SDS011;8435;52.184;5.406;2023-11-19T05:55:33;26.47;;;6.17;;
16642;SDS011;8435;52.184;5.406;2023-11-19T05:58:00;19.07;;;5.40;;
16642;SDS011;8435;52.184;5.406;2023-11-19T06:00:28;21.60;;;6.20;;
16642;SDS011;8435;52.184;5.406;2023-11-19T06:02:55;24.00;;;5.77;;
16642;SDS011;8435;52.184;5.406;2023-11-19T06:05:22;24.13;;;6.57;;
16642;SDS011;8435;52.184;5.406;2023-11-19T06:07:49;20.10;;;5.00;;
16642;SDS011;8435;52.184;5.406;2023-11-19T06:10:16;19.87;;;5.60;;
16642;SDS011;8435;52.184;5.406;2023-11-19T06:12:45;18.07;;;5.77;;
16642;SDS011;8435;52.184;5.406;2023-11-19T06:15:12;22.50;;;5.50;;
16642;SDS011;8435;52.184;5.406;2023-11-19T06:17:39;22.67;;;5.60;;
16642;SDS011;8435;52.184;5.406;2023-11-19T06:20:07;24.73;;;6.43;;
16642;SDS011;8435;52.184;5.406;2023-11-19T06:22:36;28.70;;;6.33;;
16642;SDS011;8435;52.184;5.406;2023-11-19T06:25:03;26.83;;;6.30;;
16642;SDS011;8435;52.184;5.406;2023-11-19T06:27:32;23.47;;;6.27;;
16642;SDS011;8435;52.184;5.406;2023-11-19T06:30:00;20.13;;;5.47;;
16642;SDS011;8435;52.184;5.406;2023-11-19T06:32:27;21.27;;;5.33;;
16642;SDS011;8435;52.184;5.406;2023-11-19T06:34:54;24.60;;;5.83;;
16642;SDS011;8435;52.184;5.406;2023-11-19T06:37:22;22.97;;;5.97;;
16642;SDS011;8435;52.184;5.406;2023-11-19T06:39:48;23.40;;;5.77;;
16642;SDS011;8435;52.184;5.406;2023-11-19T06:42:15;22.83;;;6.13;;
16642;SDS011;8435;52.184;5.406;2023-11-19T06:44:42;26.90;;;5.83;;
16642;SDS011;8435;52.184;5.406;2023-11-19T06:47:10;18.27;;;5.23;;
16642;SDS011;8435;52.184;5.406;2023-11-19T06:49:37;20.37;;;5.63;;
16642;SDS011;8435;52.184;5.406;2023-11-19T06:52:04;27.30;;;6.60;;
16642;SDS011;8435;52.184;5.406;2023-11-19T06:54:31;27.27;;;6.47;;
16642;SDS011;8435;52.184;5.406;2023-11-19T06:56:58;23.93;;;6.50;;
16642;SDS011;8435;52.184;5.406;2023-11-19T06:59:25;26.30;;;6.33;;
16642;SDS011;8435;52.184;5.406;2023-11-19T07:01:51;24.83;;;5.80;;
16642;SDS011;8435;52.184;5.406;2023-11-19T07:04:20;27.63;;;5.93;;
16642;SDS011;8435;52.184;5.406;2023-11-19T07:06:46;28.60;;;6.97;;
16642;SDS011;8435;52.184;5.406;2023-11-19T07:09:14;23.43;;;5.80;;
16642;SDS011;8435;52.184;5.406;2023-11-19T07:11:41;26.70;;;5.97;;
16642;SDS011;8435;52.184;5.406;2023-11-19T07:14:09;18.23;;;5.50;;
16642;SDS011;8435;52.184;5.406;2023-11-19T07:16:36;20.33;;;5.43;;
16642;SDS011;8435;52.184;5.406;2023-11-19T07:19:04;22.67;;;6.23;;
16642;SDS011;8435;52.184;5.406;2023-11-19T07:21:33;23.63;;;6.33;;
16642;SDS011;8435;52.184;5.406;2023-11-19T07:24:00;22.67;;;6.10;;
16642;SDS011;8435;52.184;5.406;2023-11-19T07:26:28;20.73;;;5.77;;
16642;SDS011;8435;52.184;5.406;2023-11-19T07:28:55;22.53;;;6.00;;
16642;SDS011;8435;52.184;5.406;2023-11-19T07:31:21;27.33;;;6.07;;
16642;SDS011;8435;52.184;5.406;2023-11-19T07:33:48;20.67;;;5.33;;
16642;SDS011;8435;52.184;5.406;2023-11-19T07:36:16;22.80;;;5.40;;
16642;SDS011;8435;52.184;5.406;2023-11-19T07:38:45;19.10;;;5.50;;
16642;SDS011;8435;52.184;5.406;2023-11-19T07:41:12;18.63;;;5.30;;
16642;SDS011;8435;52.184;5.406;2023-11-19T07:43:39;20.37;;;5.07;;
16642;SDS011;8435;52.184;5.406;2023-11-19T07:46:10;23.37;;;5.70;;
16642;SDS011;8435;52.184;5.406;2023-11-19T07:48:38;26.77;;;6.83;;
16642;SDS011;8435;52.184;5.406;2023-11-19T07:51:05;24.00;;;5.53;;
16642;SDS011;8435;52.184;5.406;2023-11-19T07:53:32;20.87;;;5.80;;
16642;SDS011;8435;52.184;5.406;2023-11-19T07:56:00;24.10;;;5.93;;
16642;SDS011;8435;52.184;5.406;2023-11-19T07:58:26;16.87;;;5.27;;
16642;SDS011;8435;52.184;5.406;2023-11-19T08:00:53;17.87;;;4.87;;
16642;SDS011;8435;52.184;5.406;2023-11-19T08:03:20;20.80;;;5.13;;
16642;SDS011;8435;52.184;5.406;2023-11-19T08:05:48;21.93;;;5.80;;
16642;SDS011;8435;52.184;5.406;2023-11-19T08:08:14;24.37;;;5.70;;
16642;SDS011;8435;52.184;5.406;2023-11-19T08:10:41;21.30;;;5.33;;
16642;SDS011;8435;52.184;5.406;2023-11-19T08:13:09;25.40;;;6.47;;
16642;SDS011;8435;52.184;5.406;2023-11-19T08:15:37;23.03;;;5.83;;
16642;SDS011;8435;52.184;5.406;2023-11-19T08:18:03;16.90;;;5.67;;
16642;SDS011;8435;52.184;5.406;2023-11-19T08:20:32;21.67;;;5.87;;
16642;SDS011;8435;52.184;5.406;2023-11-19T08:22:59;19.80;;;5.50;;
16642;SDS011;8435;52.184;5.406;2023-11-19T08:25:26;23.37;;;5.67;;
16642;SDS011;8435;52.184;5.406;2023-11-19T08:27:53;25.33;;;6.23;;
16642;SDS011;8435;52.184;5.406;2023-11-19T08:30:21;24.20;;;6.47;;
16642;SDS011;8435;52.184;5.406;2023-11-19T08:32:48;20.53;;;5.40;;
16642;SDS011;8435;52.184;5.406;2023-11-19T08:35:15;32.33;;;7.13;;
16642;SDS011;8435;52.184;5.406;2023-11-19T08:37:42;22.83;;;6.10;;
16642;SDS011;8435;52.184;5.406;2023-11-19T08:40:11;25.07;;;6.80;;
16642;SDS011;8435;52.184;5.406;2023-11-19T08:42:40;28.27;;;7.37;;
16642;SDS011;8435;52.184;5.406;2023-11-19T08:45:06;20.17;;;5.20;;
16642;SDS011;8435;52.184;5.406;2023-11-19T08:47:36;25.63;;;6.67;;
16642;SDS011;8435;52.184;5.406;2023-11-19T08:50:06;27.33;;;6.33;;
16642;SDS011;8435;52.184;5.406;2023-11-19T08:52:36;28.20;;;7.73;;
16642;SDS011;8435;52.184;5.406;2023-11-19T08:55:03;24.40;;;5.80;;
16642;SDS011;8435;52.184;5.406;2023-11-19T08:57:31;22.77;;;5.73;;
16642;SDS011;8435;52.184;5.406;2023-11-19T08:59:58;24.53;;;6.77;;
16642;SDS011;8435;52.184;5.406;2023-11-19T09:02:25;21.73;;;5.77;;
16642;SDS011;8435;52.184;5.406;2023-11-19T09:04:53;20.90;;;6.17;;
16642;SDS011;8435;52.184;5.406;2023-11-19T09:07:20;19.73;;;5.50;;
16642;SDS011;8435;52.184;5.406;2023-11-19T09:09:47;30.47;;;7.10;;
16642;SDS011;8435;52.184;5.406;2023-11-19T09:12:14;24.60;;;6.00;;
16642;SDS011;8435;52.184;5.406;2023-11-19T09:14:41;18.50;;;5.40;;
16642;SDS011;8435;52.184;5.406;2023-11-19T09:17:08;23.83;;;6.20;;
16642;SDS011;8435;52.184;5.406;2023-11-19T09:19:35;25.03;;;6.63;;
16642;SDS011;8435;52.184;5.406;2023-11-19T09:22:03;20.50;;;4.87;;
16642;SDS011;8435;52.184;5.406;2023-11-19T09:24:30;21.37;;;6.43;;
16642;SDS011;8435;52.184;5.406;2023-11-19T09:26:58;20.97;;;6.13;;
16642;SDS011;8435;52.184;5.406;2023-11-19T09:29:25;20.90;;;5.07;;
16642;SDS011;8435;52.184;5.406;2023-11-19T09:31:52;18.33;;;5.93;;
16642;SDS011;8435;52.184;5.406;2023-11-19T09:34:19;22.80;;;5.90;;
16642;SDS011;8435;52.184;5.406;2023-11-19T09:36:45;22.33;;;7.03;;
16642;SDS011;8435;52.184;5.406;2023-11-19T09:39:13;23.03;;;5.60;;
16642;SDS011;8435;52.184;5.406;2023-11-19T09:41:42;22.53;;;5.83;;
16642;SDS011;8435;52.184;5.406;2023-11-19T09:44:10;21.80;;;5.87;;
16642;SDS011;8435;52.184;5.406;2023-11-19T09:46:37;19.33;;;5.40;;
16642;SDS011;8435;52.184;5.406;2023-11-19T09:49:04;23.43;;;6.23;;
16642;SDS011;8435;52.184;5.406;2023-11-19T09:51:33;23.70;;;5.97;;
16642;SDS011;8435;52.184;5.406;2023-11-19T09:54:00;22.90;;;5.50;;
16642;SDS011;8435;52.184;5.406;2023-11-19T09:56:29;42.00;;;26.90;;
16642;SDS011;8435;52.184;5.406;2023-11-19T09:58:56;30.07;;;12.27;;
16642;SDS011;8435;52.184;5.406;2023-11-19T10:01:23;23.27;;;7.53;;
16642;SDS011;8435;52.184;5.406;2023-11-19T10:03:51;28.23;;;7.83;;
16642;SDS011;8435;52.184;5.406;2023-11-19T10:06:22;20.33;;;6.07;;
16642;SDS011;8435;52.184;5.406;2023-11-19T10:08:51;25.97;;;6.97;;
16642;SDS011;8435;52.184;5.406;2023-11-19T10:11:19;21.57;;;6.37;;
16642;SDS011;8435;52.184;5.406;2023-11-19T10:13:47;20.10;;;6.20;;
16642;SDS011;8435;52.184;5.406;2023-11-19T10:16:14;21.30;;;5.50;;
16642;SDS011;8435;52.184;5.406;2023-11-19T10:18:43;22.33;;;6.30;;
16642;SDS011;8435;52.184;5.406;2023-11-19T10:21:12;17.50;;;4.90;;
16642;SDS011;8435;52.184;5.406;2023-11-19T10:23:48;21.20;;;6.03;;
16642;SDS011;8435;52.184;5.406;2023-11-19T10:26:16;21.10;;;5.87;;
16642;SDS011;8435;52.184;5.406;2023-11-19T10:28:43;25.70;;;6.40;;
16642;SDS011;8435;52.184;5.406;2023-11-19T10:31:13;21.43;;;5.77;;
16642;SDS011;8435;52.184;5.406;2023-11-19T10:33:40;21.30;;;5.30;;
16642;SDS011;8435;52.184;5.406;2023-11-19T10:36:07;18.70;;;5.27;;
16642;SDS011;8435;52.184;5.406;2023-11-19T10:38:34;21.87;;;6.27;;
16642;SDS011;8435;52.184;5.406;2023-11-19T10:41:01;18.80;;;4.57;;
16642;SDS011;8435;52.184;5.406;2023-11-19T10:43:44;21.60;;;6.03;;
16642;SDS011;8435;52.184;5.406;2023-11-19T10:46:13;17.87;;;5.13;;
16642;SDS011;8435;52.184;5.406;2023-11-19T10:48:46;20.57;;;6.23;;
16642;SDS011;8435;52.184;5.406;2023-11-19T10:51:13;17.87;;;4.83;;
16642;SDS011;8435;52.184;5.406;2023-11-19T10:53:46;19.27;;;5.73;;
16642;SDS011;8435;52.184;5.406;2023-11-19T10:56:15;20.10;;;5.37;;
16642;SDS011;8435;52.184;5.406;2023-11-19T10:58:44;21.70;;;5.50;;
16642;SDS011;8435;52.184;5.406;2023-11-19T11:01:13;19.73;;;5.80;;
16642;SDS011;8435;52.184;5.406;2023-11-19T11:03:43;20.00;;;5.43;;
16642;SDS011;8435;52.184;5.406;2023-11-19T11:06:12;19.17;;;5.20;;
16642;SDS011;8435;52.184;5.406;2023-11-19T11:08:39;18.93;;;4.90;;
16642;SDS011;8435;52.184;5.406;2023-11-19T11:11:07;25.00;;;5.70;;
16642;SDS011;8435;52.184;5.406;2023-11-19T11:13:35;23.90;;;5.70;;
16642;SDS011;8435;52.184;5.406;2023-11-19T11:16:06;21.47;;;5.60;;
16642;SDS011;8435;52.184;5.406;2023-11-19T11:18:35;20.10;;;5.13;;
16642;SDS011;8435;52.184;5.406;2023-11-19T11:21:03;17.87;;;4.93;;
16642;SDS011;8435;52.184;5.406;2023-11-19T11:23:37;20.87;;;5.07;;
16642;SDS011;8435;52.184;5.406;2023-11-19T11:26:35;14.10;;;4.80;;
16642;SDS011;8435;52.184;5.406;2023-11-19T11:29:20;23.50;;;6.17;;
16642;SDS011;8435;52.184;5.406;2023-11-19T11:31:55;18.73;;;5.60;;
16642;SDS011;8435;52.184;5.406;2023-11-19T11:34:39;20.73;;;5.33;;
16642;SDS011;8435;52.184;5.406;2023-11-19T11:37:18;18.57;;;4.93;;
16642;SDS011;8435;52.184;5.406;2023-11-19T11:39:49;20.43;;;6.33;;
16642;SDS011;8435;52.184;5.406;2023-11-19T11:42:34;19.73;;;5.43;;
16642;SDS011;8435;52.184;5.406;2023-11-19T11:45:03;22.07;;;5.73;;
16642;SDS011;8435;52.184;5.406;2023-11-19T11:50:48;20.27;;;5.67;;
16642;SDS011;8435;52.184;5.406;2023-11-19T11:53:17;18.10;;;4.83;;
16642;SDS011;8435;52.184;5.406;2023-11-19T11:58:35;16.20;;;4.63;;
16642;SDS011;8435;52.184;5.406;2023-11-19T12:01:03;20.00;;;5.70;;
16642;SDS011;8435;52.184;5.406;2023-11-19T12:03:31;21.73;;;5.53;;
16642;SDS011;8435;52.184;5.406;2023-11-19T12:06:00;19.20;;;5.00;;
16642;SDS011;8435;52.184;5.406;2023-11-19T12:08:28;21.77;;;5.93;;
16642;SDS011;8435;52.184;5.406;2023-11-19T12:10:57;21.63;;;5.93;;
16642;SDS011;8435;52.184;5.406;2023-11-19T12:13:24;23.53;;;5.90;;
16642;SDS011;8435;52.184;5.406;2023-11-19T12:16:12;19.40;;;5.43;;
16642;SDS011;8435;52.184;5.406;2023-11-19T12:18:39;21.00;;;4.90;;
16642;SDS011;8435;52.184;5.406;2023-11-19T12:21:08;23.03;;;7.17;;
16642;SDS011;8435;52.184;5.406;2023-11-19T12:23:47;20.83;;;5.97;;
16642;SDS011;8435;52.184;5.406;2023-11-19T12:26:33;22.67;;;7.63;;
16642;SDS011;8435;52.184;5.406;2023-11-19T12:29:01;21.87;;;7.40;;
16642;SDS011;8435;52.184;5.406;2023-11-19T12:31:31;17.97;;;5.83;;
16642;SDS011;8435;52.184;5.406;2023-11-19T12:34:00;19.60;;;6.17;;
16642;SDS011;8435;52.184;5.406;2023-11-19T12:36:32;14.80;;;4.93;;
16642;SDS011;8435;52.184;5.406;2023-11-19T12:39:00;21.33;;;6.33;;
16642;SDS011;8435;52.184;5.406;2023-11-19T12:41:27;14.33;;;5.10;;
16642;SDS011;8435;52.184;5.406;2023-11-19T12:43:54;16.40;;;5.37;;
16642;SDS011;8435;52.184;5.406;2023-11-19T12:46:34;15.17;;;4.67;;
16642;SDS011;8435;52.184;5.406;2023-11-19T12:49:01;15.70;;;4.43;;
16642;SDS011;8435;52.184;5.406;2023-11-19T12:51:30;16.03;;;5.03;;
16642;SDS011;8435;52.184;5.406;2023-11-19T12:53:58;16.07;;;4.13;;
16642;SDS011;8435;52.184;5.406;2023-11-19T12:56:25;17.70;;;5.20;;
16642;SDS011;8435;52.184;5.406;2023-11-19T12:58:52;16.60;;;4.50;;
16642;SDS011;8435;52.184;5.406;2023-11-19T13:01:20;18.37;;;4.90;;
16642;SDS011;8435;52.184;5.406;2023-11-19T13:03:47;16.43;;;4.73;;
16642;SDS011;8435;52.184;5.406;2023-11-19T13:06:16;15.30;;;4.90;;
16642;SDS011;8435;52.184;5.406;2023-11-19T13:08:48;13.97;;;4.00;;
16642;SDS011;8435;52.184;5.406;2023-11-19T13:11:30;12.17;;;3.10;;
16642;SDS011;8435;52.184;5.406;2023-11-19T13:13:58;12.30;;;4.00;;
16642;SDS011;8435;52.184;5.406;2023-11-19T13:16:26;15.83;;;4.40;;
16642;SDS011;8435;52.184;5.406;2023-11-19T13:18:53;19.97;;;4.47;;
16642;SDS011;8435;52.184;5.406;2023-11-19T13:21:22;15.83;;;4.70;;
16642;SDS011;8435;52.184;5.406;2023-11-19T13:23:50;14.30;;;4.37;;
16642;SDS011;8435;52.184;5.406;2023-11-19T13:26:17;15.17;;;4.20;;
16642;SDS011;8435;52.184;5.406;2023-11-19T13:28:44;16.30;;;4.83;;
16642;SDS011;8435;52.184;5.406;2023-11-19T13:31:11;13.83;;;4.17;;
16642;SDS011;8435;52.184;5.406;2023-11-19T13:33:42;15.93;;;5.10;;
16642;SDS011;8435;52.184;5.406;2023-11-19T13:36:09;13.10;;;4.43;;
16642;SDS011;8435;52.184;5.406;2023-11-19T13:38:37;16.30;;;4.30;;
16642;SDS011;8435;52.184;5.406;2023-11-19T13:41:07;18.57;;;4.60;;
16642;SDS011;8435;52.184;5.406;2023-11-19T13:43:35;16.13;;;4.20;;
16642;SDS011;8435;52.184;5.406;2023-11-19T13:46:02;19.57;;;5.27;;
16642;SDS011;8435;52.184;5.406;2023-11-19T13:48:29;15.63;;;4.60;;
16642;SDS011;8435;52.184;5.406;2023-11-19T13:50:55;21.83;;;5.17;;
16642;SDS011;8435;52.184;5.406;2023-11-19T13:53:22;17.27;;;4.97;;
16642;SDS011;8435;52.184;5.406;2023-11-19T13:55:49;19.87;;;5.43;;
16642;SDS011;8435;52.184;5.406;2023-11-19T13:58:18;19.27;;;4.73;;
16642;SDS011;8435;52.184;5.406;2023-11-19T14:00:45;19.93;;;4.83;;
16642;SDS011;8435;52.184;5.406;2023-11-19T14:03:11;16.73;;;6.77;;
16642;SDS011;8435;52.184;5.406;2023-11-19T14:05:38;16.03;;;4.77;;
16642;SDS011;8435;52.184;5.406;2023-11-19T14:08:06;20.33;;;5.40;;
16642;SDS011;8435;52.184;5.406;2023-11-19T14:10:36;21.07;;;6.30;;
16642;SDS011;8435;52.184;5.406;2023-11-19T14:13:05;12.77;;;4.43;;
16642;SDS011;8435;52.184;5.406;2023-11-19T14:15:33;16.30;;;4.63;;
16642;SDS011;8435;52.184;5.406;2023-11-19T14:18:00;18.83;;;6.03;;
16642;SDS011;8435;52.184;5.406;2023-11-19T14:20:28;16.90;;;4.63;;
16642;SDS011;8435;52.184;5.406;2023-11-19T14:22:55;16.03;;;4.63;;
16642;SDS011;8435;52.184;5.406;2023-11-19T14:25:22;16.77;;;4.13;;
16642;SDS011;8435;52.184;5.406;2023-11-19T14:27:49;15.03;;;4.73;;
16642;SDS011;8435;52.184;5.406;2023-11-19T14:30:16;19.43;;;5.50;;
16642;SDS011;8435;52.184;5.406;2023-11-19T14:32:46;15.63;;;4.57;;
16642;SDS011;8435;52.184;5.406;2023-11-19T14:35:15;15.90;;;4.27;;
16642;SDS011;8435;52.184;5.406;2023-11-19T14:37:45;19.13;;;4.60;;
16642;SDS011;8435;52.184;5.406;2023-11-19T14:40:12;21.30;;;5.00;;
16642;SDS011;8435;52.184;5.406;2023-11-19T14:42:41;20.03;;;4.80;;
16642;SDS011;8435;52.184;5.406;2023-11-19T14:45:09;12.47;;;3.93;;
16642;SDS011;8435;52.184;5.406;2023-11-19T14:47:37;16.03;;;4.47;;
16642;SDS011;8435;52.184;5.406;2023-11-19T14:50:06;15.60;;;4.60;;
16642;SDS011;8435;52.184;5.406;2023-11-19T14:52:34;17.37;;;4.10;;
16642;SDS011;8435;52.184;5.406;2023-11-19T14:55:01;16.60;;;4.47;;
16642;SDS011;8435;52.184;5.406;2023-11-19T14:57:28;20.43;;;4.67;;
16642;SDS011;8435;52.184;5.406;2023-11-19T14:59:54;20.60;;;5.00;;